sensor_id;sensor_type;location;lat;lon;timestamp;temperature;humidity
14057;DHT22;7103;54.300;10.180;2022-11-23T00:01:28;2.60;1.00
14057;DHT22;7103;54.300;10.180;2022-11-23T00:03:57;2.80;1.00
14057;DHT22;7103;54.300;10.180;2022-11-23T00:06:24;2.80;1.00
14057;DHT22;7103;54.300;10.180;2022-11-23T00:08:52;2.70;1.00
14057;DHT22;7103;54.300;10.180;2022-11-23T00:11:21;2.80;1.00
14057;DHT22;7103;54.300;10.180;2022-11-23T00:13:51;2.90;1.00
14057;DHT22;7103;54.300;10.180;2022-11-23T00:16:23;2.70;1.00
14057;DHT22;7103;54.300;10.180;2022-11-23T00:18:54;2.80;1.00
14057;DHT22;7103;54.300;10.180;2022-11-23T00:21:23;2.80;1.00
14057;DHT22;7103;54.300;10.180;2022-11-23T00:23:50;2.70;1.00
14057;DHT22;7103;54.300;10.180;2022-11-23T00:26:18;2.70;1.00
14057;DHT22;7103;54.300;10.180;2022-11-23T00:28:45;2.70;1.00
14057;DHT22;7103;54.300;10.180;2022-11-23T00:31:15;2.80;1.00
14057;DHT22;7103;54.300;10.180;2022-11-23T00:33:53;2.80;1.00
14057;DHT22;7103;54.300;10.180;2022-11-23T00:36:22;2.80;1.00
14057;DHT22;7103;54.300;10.180;2022-11-23T00:38:51;2.70;1.00
14057;DHT22;7103;54.300;10.180;2022-11-23T00:41:22;2.80;1.00
14057;DHT22;7103;54.300;10.180;2022-11-23T00:43:49;2.80;1.00
14057;DHT22;7103;54.300;10.180;2022-11-23T00:46:26;2.70;1.00
14057;DHT22;7103;54.300;10.180;2022-11-23T00:48:55;2.80;1.00
14057;DHT22;7103;54.300;10.180;2022-11-23T00:51:25;2.90;1.00
14057;DHT22;7103;54.300;10.180;2022-11-23T00:53:53;2.80;1.00
14057;DHT22;7103;54.300;10.180;2022-11-23T00:56:20;3.00;1.00
14057;DHT22;7103;54.300;10.180;2022-11-23T00:58:52;3.00;1.00
14057;DHT22;7103;54.300;10.180;2022-11-23T01:01:22;2.70;1.00
14057;DHT22;7103;54.300;10.180;2022-11-23T01:03:52;2.70;1.00
14057;DHT22;7103;54.300;10.180;2022-11-23T01:06:22;2.80;1.00
14057;DHT22;7103;54.300;10.180;2022-11-23T01:08:51;2.90;1.00
14057;DHT22;7103;54.300;10.180;2022-11-23T01:11:19;2.90;1.00
14057;DHT22;7103;54.300;10.180;2022-11-23T01:13:48;2.90;1.00
14057;DHT22;7103;54.300;10.180;2022-11-23T01:16:19;2.90;1.00
14057;DHT22;7103;54.300;10.180;2022-11-23T01:18:54;3.00;1.00
14057;DHT22;7103;54.300;10.180;2022-11-23T01:21:21;2.90;1.00
14057;DHT22;7103;54.300;10.180;2022-11-23T01:23:49;2.90;1.00
14057;DHT22;7103;54.300;10.180;2022-11-23T01:26:16;2.80;1.00
14057;DHT22;7103;54.300;10.180;2022-11-23T01:28:43;2.80;1.00
14057;DHT22;7103;54.300;10.180;2022-11-23T01:31:15;3.00;1.00
14057;DHT22;7103;54.300;10.180;2022-11-23T01:33:42;2.80;1.00
14057;DHT22;7103;54.300;10.180;2022-11-23T01:36:10;2.80;1.00
14057;DHT22;7103;54.300;10.180;2022-11-23T01:38:39;2.90;1.00
14057;DHT22;7103;54.300;10.180;2022-11-23T01:41:08;2.90;1.00
14057;DHT22;7103;54.300;10.180;2022-11-23T01:43:35;3.00;1.00
14057;DHT22;7103;54.300;10.180;2022-11-23T01:46:02;2.90;1.00
14057;DHT22;7103;54.300;10.180;2022-11-23T01:48:43;2.90;1.00
14057;DHT22;7103;54.300;10.180;2022-11-23T01:51:23;2.90;1.00
14057;DHT22;7103;54.300;10.180;2022-11-23T01:53:53;2.90;1.00
14057;DHT22;7103;54.300;10.180;2022-11-23T01:56:28;2.90;1.00
14057;DHT22;7103;54.300;10.180;2022-11-23T01:58:58;3.00;1.00
14057;DHT22;7103;54.300;10.180;2022-11-23T02:01:28;3.00;1.00
14057;DHT22;7103;54.300;10.180;2022-11-23T02:03:57;3.00;1.00
14057;DHT22;7103;54.300;10.180;2022-11-23T02:06:25;3.00;1.00
14057;DHT22;7103;54.300;10.180;2022-11-23T02:08:52;3.00;1.00
14057;DHT22;7103;54.300;10.180;2022-11-23T02:11:19;3.00;1.00
14057;DHT22;7103;54.300;10.180;2022-11-23T02:13:48;3.00;1.00
14057;DHT22;7103;54.300;10.180;2022-11-23T02:16:16;3.00;1.00
14057;DHT22;7103;54.300;10.180;2022-11-23T02:18:46;3.00;1.00
14057;DHT22;7103;54.300;10.180;2022-11-23T02:21:14;3.10;1.00
14057;DHT22;7103;54.300;10.180;2022-11-23T02:26:29;3.20;1.00
14057;DHT22;7103;54.300;10.180;2022-11-23T02:31:39;3.10;1.00
14057;DHT22;7103;54.300;10.180;2022-11-23T02:34:06;3.20;1.00
14057;DHT22;7103;54.300;10.180;2022-11-23T02:36:45;3.10;1.00
14057;DHT22;7103;54.300;10.180;2022-11-23T02:39:38;3.20;1.00
14057;DHT22;7103;54.300;10.180;2022-11-23T02:42:07;3.10;1.00
14057;DHT22;7103;54.300;10.180;2022-11-23T02:47:21;3.20;1.00
14057;DHT22;7103;54.300;10.180;2022-11-23T02:49:48;3.20;1.00
14057;DHT22;7103;54.300;10.180;2022-11-23T02:52:16;3.30;1.00
14057;DHT22;7103;54.300;10.180;2022-11-23T02:54:44;3.20;1.00
14057;DHT22;7103;54.300;10.180;2022-11-23T02:57:10;3.20;1.00
14057;DHT22;7103;54.300;10.180;2022-11-23T02:59:37;3.20;1.00
14057;DHT22;7103;54.300;10.180;2022-11-23T03:02:05;3.20;1.00
14057;DHT22;7103;54.300;10.180;2022-11-23T03:04:32;3.20;1.00
14057;DHT22;7103;54.300;10.180;2022-11-23T03:06:59;3.20;1.00
14057;DHT22;7103;54.300;10.180;2022-11-23T03:09:26;3.10;1.00
14057;DHT22;7103;54.300;10.180;2022-11-23T03:11:54;3.20;1.00
14057;DHT22;7103;54.300;10.180;2022-11-23T03:14:21;3.20;1.00
14057;DHT22;7103;54.300;10.180;2022-11-23T03:16:48;3.30;1.00
14057;DHT22;7103;54.300;10.180;2022-11-23T03:19:14;3.20;1.00
14057;DHT22;7103;54.300;10.180;2022-11-23T03:21:41;3.30;1.00
14057;DHT22;7103;54.300;10.180;2022-11-23T03:24:08;3.30;1.00
14057;DHT22;7103;54.300;10.180;2022-11-23T03:26:35;3.20;1.00
14057;DHT22;7103;54.300;10.180;2022-11-23T03:29:02;3.20;1.00
14057;DHT22;7103;54.300;10.180;2022-11-23T03:31:29;3.20;1.00
14057;DHT22;7103;54.300;10.180;2022-11-23T03:33:56;3.20;1.00
14057;DHT22;7103;54.300;10.180;2022-11-23T03:36:23;3.20;1.00
14057;DHT22;7103;54.300;10.180;2022-11-23T03:38:50;3.20;1.00
14057;DHT22;7103;54.300;10.180;2022-11-23T03:41:17;3.30;1.00
14057;DHT22;7103;54.300;10.180;2022-11-23T03:43:43;3.50;1.00
14057;DHT22;7103;54.300;10.180;2022-11-23T03:46:10;3.30;1.00
14057;DHT22;7103;54.300;10.180;2022-11-23T03:48:40;3.50;1.00
14057;DHT22;7103;54.300;10.180;2022-11-23T03:51:06;3.30;1.00
14057;DHT22;7103;54.300;10.180;2022-11-23T03:53:34;3.40;1.00
14057;DHT22;7103;54.300;10.180;2022-11-23T03:56:00;3.30;1.00
14057;DHT22;7103;54.300;10.180;2022-11-23T03:58:27;3.30;1.00
14057;DHT22;7103;54.300;10.180;2022-11-23T04:00:54;3.40;1.00
14057;DHT22;7103;54.300;10.180;2022-11-23T04:03:21;3.30;1.00
14057;DHT22;7103;54.300;10.180;2022-11-23T04:05:48;3.30;1.00
14057;DHT22;7103;54.300;10.180;2022-11-23T04:08:15;3.30;1.00
14057;DHT22;7103;54.300;10.180;2022-11-23T04:10:42;3.30;1.00
14057;DHT22;7103;54.300;10.180;2022-11-23T04:13:09;3.30;1.00
14057;DHT22;7103;54.300;10.180;2022-11-23T04:15:36;3.40;1.00
14057;DHT22;7103;54.300;10.180;2022-11-23T04:18:03;3.40;1.00
14057;DHT22;7103;54.300;10.180;2022-11-23T04:20:30;3.20;1.00
14057;DHT22;7103;54.300;10.180;2022-11-23T04:22:57;3.20;1.00
14057;DHT22;7103;54.300;10.180;2022-11-23T04:25:24;3.00;1.00
14057;DHT22;7103;54.300;10.180;2022-11-23T04:27:51;3.30;1.00
14057;DHT22;7103;54.300;10.180;2022-11-23T04:30:17;3.30;1.00
14057;DHT22;7103;54.300;10.180;2022-11-23T04:32:45;3.30;1.00
14057;DHT22;7103;54.300;10.180;2022-11-23T04:35:12;3.40;1.00
14057;DHT22;7103;54.300;10.180;2022-11-23T04:37:39;3.40;1.00
14057;DHT22;7103;54.300;10.180;2022-11-23T04:40:06;3.50;1.00
14057;DHT22;7103;54.300;10.180;2022-11-23T04:42:33;3.30;1.00
14057;DHT22;7103;54.300;10.180;2022-11-23T04:45:00;3.30;1.00
14057;DHT22;7103;54.300;10.180;2022-11-23T04:47:27;3.40;1.00
14057;DHT22;7103;54.300;10.180;2022-11-23T04:49:53;3.30;1.00
14057;DHT22;7103;54.300;10.180;2022-11-23T04:52:20;3.50;1.00
14057;DHT22;7103;54.300;10.180;2022-11-23T04:54:47;3.40;1.00
14057;DHT22;7103;54.300;10.180;2022-11-23T04:57:14;3.50;1.00
14057;DHT22;7103;54.300;10.180;2022-11-23T04:59:41;3.50;1.00
14057;DHT22;7103;54.300;10.180;2022-11-23T05:02:08;3.50;1.00
14057;DHT22;7103;54.300;10.180;2022-11-23T05:04:35;3.60;1.00
14057;DHT22;7103;54.300;10.180;2022-11-23T05:07:02;3.60;1.00
14057;DHT22;7103;54.300;10.180;2022-11-23T05:09:30;3.80;1.00
14057;DHT22;7103;54.300;10.180;2022-11-23T05:11:58;3.60;1.00
14057;DHT22;7103;54.300;10.180;2022-11-23T05:14:24;3.60;1.00
14057;DHT22;7103;54.300;10.180;2022-11-23T05:16:51;3.60;1.00
14057;DHT22;7103;54.300;10.180;2022-11-23T05:19:18;3.60;1.00
14057;DHT22;7103;54.300;10.180;2022-11-23T05:21:45;3.70;1.00
14057;DHT22;7103;54.300;10.180;2022-11-23T05:24:12;3.70;1.00
14057;DHT22;7103;54.300;10.180;2022-11-23T05:26:39;4.00;1.00
14057;DHT22;7103;54.300;10.180;2022-11-23T05:29:06;3.70;1.00
14057;DHT22;7103;54.300;10.180;2022-11-23T05:31:33;3.80;1.00
14057;DHT22;7103;54.300;10.180;2022-11-23T05:34:00;3.70;1.00
14057;DHT22;7103;54.300;10.180;2022-11-23T05:36:26;3.70;1.00
14057;DHT22;7103;54.300;10.180;2022-11-23T05:38:53;3.70;1.00
14057;DHT22;7103;54.300;10.180;2022-11-23T05:41:20;3.80;1.00
14057;DHT22;7103;54.300;10.180;2022-11-23T05:43:47;3.80;1.00
14057;DHT22;7103;54.300;10.180;2022-11-23T05:46:14;3.80;1.00
14057;DHT22;7103;54.300;10.180;2022-11-23T05:48:41;3.80;1.00
14057;DHT22;7103;54.300;10.180;2022-11-23T05:51:08;3.80;1.00
14057;DHT22;7103;54.300;10.180;2022-11-23T05:53:35;3.80;1.00
14057;DHT22;7103;54.300;10.180;2022-11-23T05:56:02;3.80;1.00
14057;DHT22;7103;54.300;10.180;2022-11-23T05:58:29;3.80;1.00
14057;DHT22;7103;54.300;10.180;2022-11-23T06:00:58;3.80;1.00
14057;DHT22;7103;54.300;10.180;2022-11-23T06:03:25;3.90;1.00
14057;DHT22;7103;54.300;10.180;2022-11-23T06:05:52;4.00;1.00
14057;DHT22;7103;54.300;10.180;2022-11-23T06:08:19;3.90;1.00
14057;DHT22;7103;54.300;10.180;2022-11-23T06:10:46;3.90;1.00
14057;DHT22;7103;54.300;10.180;2022-11-23T06:13:13;4.00;1.00
14057;DHT22;7103;54.300;10.180;2022-11-23T06:15:40;4.10;1.00
14057;DHT22;7103;54.300;10.180;2022-11-23T06:18:08;4.10;1.00
14057;DHT22;7103;54.300;10.180;2022-11-23T06:20:35;4.00;1.00
14057;DHT22;7103;54.300;10.180;2022-11-23T06:23:02;4.00;1.00
14057;DHT22;7103;54.300;10.180;2022-11-23T06:25:29;4.00;1.00
14057;DHT22;7103;54.300;10.180;2022-11-23T06:27:57;4.00;1.00
14057;DHT22;7103;54.300;10.180;2022-11-23T06:30:26;4.00;1.00
14057;DHT22;7103;54.300;10.180;2022-11-23T06:32:54;4.00;1.00
14057;DHT22;7103;54.300;10.180;2022-11-23T06:35:21;4.00;1.00
14057;DHT22;7103;54.300;10.180;2022-11-23T06:37:48;4.00;1.00
14057;DHT22;7103;54.300;10.180;2022-11-23T06:40:16;4.00;1.00
14057;DHT22;7103;54.300;10.180;2022-11-23T06:42:43;4.00;1.00
14057;DHT22;7103;54.300;10.180;2022-11-23T06:45:10;4.10;1.00
14057;DHT22;7103;54.300;10.180;2022-11-23T06:47:37;4.20;1.00
14057;DHT22;7103;54.300;10.180;2022-11-23T06:50:04;4.30;1.00
14057;DHT22;7103;54.300;10.180;2022-11-23T06:52:32;4.10;1.00
14057;DHT22;7103;54.300;10.180;2022-11-23T06:54:58;4.10;1.00
14057;DHT22;7103;54.300;10.180;2022-11-23T06:57:26;4.20;1.00
14057;DHT22;7103;54.300;10.180;2022-11-23T06:59:52;4.20;1.00
14057;DHT22;7103;54.300;10.180;2022-11-23T07:02:19;4.10;1.00
14057;DHT22;7103;54.300;10.180;2022-11-23T07:04:46;4.00;1.00
14057;DHT22;7103;54.300;10.180;2022-11-23T07:07:13;4.10;1.00
14057;DHT22;7103;54.300;10.180;2022-11-23T07:09:47;4.20;1.00
14057;DHT22;7103;54.300;10.180;2022-11-23T07:12:14;4.10;1.00
14057;DHT22;7103;54.300;10.180;2022-11-23T07:14:41;4.10;1.00
14057;DHT22;7103;54.300;10.180;2022-11-23T07:17:07;4.10;1.00
14057;DHT22;7103;54.300;10.180;2022-11-23T07:19:37;4.30;1.00
14057;DHT22;7103;54.300;10.180;2022-11-23T07:22:04;4.30;1.00
14057;DHT22;7103;54.300;10.180;2022-11-23T07:24:31;4.20;1.00
14057;DHT22;7103;54.300;10.180;2022-11-23T07:27:06;4.20;1.00
14057;DHT22;7103;54.300;10.180;2022-11-23T07:29:35;4.30;1.00
14057;DHT22;7103;54.300;10.180;2022-11-23T07:32:02;4.30;1.00
14057;DHT22;7103;54.300;10.180;2022-11-23T07:34:29;4.30;1.00
14057;DHT22;7103;54.300;10.180;2022-11-23T07:36:56;4.20;1.00
14057;DHT22;7103;54.300;10.180;2022-11-23T07:39:27;4.20;1.00
14057;DHT22;7103;54.300;10.180;2022-11-23T07:42:14;4.30;1.00
14057;DHT22;7103;54.300;10.180;2022-11-23T07:45:02;4.30;1.00
14057;DHT22;7103;54.300;10.180;2022-11-23T07:47:29;4.60;1.00
14057;DHT22;7103;54.300;10.180;2022-11-23T07:49:56;4.50;1.00
14057;DHT22;7103;54.300;10.180;2022-11-23T07:52:23;4.50;1.00
14057;DHT22;7103;54.300;10.180;2022-11-23T07:54:50;4.40;1.00
14057;DHT22;7103;54.300;10.180;2022-11-23T07:57:16;4.60;1.00
14057;DHT22;7103;54.300;10.180;2022-11-23T07:59:43;4.50;1.00
14057;DHT22;7103;54.300;10.180;2022-11-23T08:02:13;4.50;1.00
14057;DHT22;7103;54.300;10.180;2022-11-23T08:04:41;4.50;1.00
14057;DHT22;7103;54.300;10.180;2022-11-23T08:07:07;4.60;1.00
14057;DHT22;7103;54.300;10.180;2022-11-23T08:09:37;4.50;1.00
14057;DHT22;7103;54.300;10.180;2022-11-23T08:12:05;4.50;1.00
14057;DHT22;7103;54.300;10.180;2022-11-23T08:14:32;4.50;1.00
14057;DHT22;7103;54.300;10.180;2022-11-23T08:16:59;4.50;1.00
14057;DHT22;7103;54.300;10.180;2022-11-23T08:19:26;4.60;1.00
14057;DHT22;7103;54.300;10.180;2022-11-23T08:21:53;4.60;1.00
14057;DHT22;7103;54.300;10.180;2022-11-23T08:24:20;4.60;1.00
14057;DHT22;7103;54.300;10.180;2022-11-23T08:26:47;4.70;1.00
14057;DHT22;7103;54.300;10.180;2022-11-23T08:29:14;4.70;1.00
14057;DHT22;7103;54.300;10.180;2022-11-23T08:31:41;4.70;1.00
14057;DHT22;7103;54.300;10.180;2022-11-23T08:34:08;4.80;1.00
14057;DHT22;7103;54.300;10.180;2022-11-23T08:36:36;4.70;1.00
14057;DHT22;7103;54.300;10.180;2022-11-23T08:39:03;4.80;1.00
14057;DHT22;7103;54.300;10.180;2022-11-23T08:41:30;4.80;1.00
14057;DHT22;7103;54.300;10.180;2022-11-23T08:43:57;5.00;1.00
14057;DHT22;7103;54.300;10.180;2022-11-23T08:46:23;4.90;1.00
14057;DHT22;7103;54.300;10.180;2022-11-23T08:48:50;4.90;1.00
14057;DHT22;7103;54.300;10.180;2022-11-23T08:51:17;5.00;1.00
14057;DHT22;7103;54.300;10.180;2022-11-23T08:53:48;5.00;1.00
14057;DHT22;7103;54.300;10.180;2022-11-23T08:56:16;4.90;1.00
14057;DHT22;7103;54.300;10.180;2022-11-23T08:58:43;4.90;1.00
14057;DHT22;7103;54.300;10.180;2022-11-23T09:01:13;4.90;1.00
14057;DHT22;7103;54.300;10.180;2022-11-23T09:03:40;5.10;1.00
14057;DHT22;7103;54.300;10.180;2022-11-23T09:06:08;5.10;1.00
14057;DHT22;7103;54.300;10.180;2022-11-23T09:08:36;5.10;1.00
14057;DHT22;7103;54.300;10.180;2022-11-23T09:11:05;5.10;1.00
14057;DHT22;7103;54.300;10.180;2022-11-23T09:13:37;5.20;1.00
14057;DHT22;7103;54.300;10.180;2022-11-23T09:16:06;5.20;1.00
14057;DHT22;7103;54.300;10.180;2022-11-23T09:18:33;5.20;1.00
14057;DHT22;7103;54.300;10.180;2022-11-23T09:21:03;5.20;1.00
14057;DHT22;7103;54.300;10.180;2022-11-23T09:23:30;5.20;1.00
14057;DHT22;7103;54.300;10.180;2022-11-23T09:25:59;5.30;1.00
14057;DHT22;7103;54.300;10.180;2022-11-23T09:28:26;5.30;1.00
14057;DHT22;7103;54.300;10.180;2022-11-23T09:30:55;5.30;1.00
14057;DHT22;7103;54.300;10.180;2022-11-23T09:33:23;5.30;1.00
14057;DHT22;7103;54.300;10.180;2022-11-23T09:36:01;5.30;1.00
14057;DHT22;7103;54.300;10.180;2022-11-23T09:38:28;5.30;1.00
14057;DHT22;7103;54.300;10.180;2022-11-23T09:52:21;5.60;1.00
14057;DHT22;7103;54.300;10.180;2022-11-23T09:54:53;5.70;1.00
14057;DHT22;7103;54.300;10.180;2022-11-23T09:57:25;5.80;1.00
14057;DHT22;7103;54.300;10.180;2022-11-23T10:00:06;5.80;1.00
14057;DHT22;7103;54.300;10.180;2022-11-23T10:02:39;5.80;1.00
14057;DHT22;7103;54.300;10.180;2022-11-23T10:05:09;5.80;1.00
14057;DHT22;7103;54.300;10.180;2022-11-23T10:16:02;5.90;1.00
14057;DHT22;7103;54.300;10.180;2022-11-23T10:24:41;6.00;1.00
14057;DHT22;7103;54.300;10.180;2022-11-23T10:27:28;6.00;1.00
14057;DHT22;7103;54.300;10.180;2022-11-23T10:29:57;6.10;1.00
14057;DHT22;7103;54.300;10.180;2022-11-23T10:35:17;6.20;1.00
14057;DHT22;7103;54.300;10.180;2022-11-23T10:37:44;6.20;1.00
14057;DHT22;7103;54.300;10.180;2022-11-23T10:40:21;6.20;1.00
14057;DHT22;7103;54.300;10.180;2022-11-23T10:42:56;6.30;1.00
14057;DHT22;7103;54.300;10.180;2022-11-23T10:45:26;6.30;1.00
14057;DHT22;7103;54.300;10.180;2022-11-23T10:47:59;6.30;1.00
14057;DHT22;7103;54.300;10.180;2022-11-23T10:50:30;6.30;1.00
14057;DHT22;7103;54.300;10.180;2022-11-23T10:53:18;6.30;1.00
14057;DHT22;7103;54.300;10.180;2022-11-23T10:55:54;6.30;1.00
14057;DHT22;7103;54.300;10.180;2022-11-23T10:58:41;6.40;1.00
14057;DHT22;7103;54.300;10.180;2022-11-23T11:01:15;6.40;1.00
14057;DHT22;7103;54.300;10.180;2022-11-23T11:03:44;6.50;1.00
14057;DHT22;7103;54.300;10.180;2022-11-23T11:06:24;6.50;1.00
14057;DHT22;7103;54.300;10.180;2022-11-23T11:08:57;6.50;1.00
14057;DHT22;7103;54.300;10.180;2022-11-23T11:11:31;6.50;1.00
14057;DHT22;7103;54.300;10.180;2022-11-23T11:14:17;6.40;1.00
14057;DHT22;7103;54.300;10.180;2022-11-23T11:16:55;6.40;1.00
14057;DHT22;7103;54.300;10.180;2022-11-23T11:19:34;6.50;1.00
14057;DHT22;7103;54.300;10.180;2022-11-23T11:22:25;6.50;1.00
14057;DHT22;7103;54.300;10.180;2022-11-23T11:24:53;6.60;1.00
14057;DHT22;7103;54.300;10.180;2022-11-23T11:27:22;6.50;1.00
14057;DHT22;7103;54.300;10.180;2022-11-23T11:29:52;6.60;1.00
14057;DHT22;7103;54.300;10.180;2022-11-23T11:32:51;6.60;1.00
14057;DHT22;7103;54.300;10.180;2022-11-23T11:35:34;6.60;1.00
14057;DHT22;7103;54.300;10.180;2022-11-23T11:38:30;6.70;1.00
14057;DHT22;7103;54.300;10.180;2022-11-23T11:41:01;6.60;1.00
14057;DHT22;7103;54.300;10.180;2022-11-23T11:43:47;6.70;1.00
14057;DHT22;7103;54.300;10.180;2022-11-23T11:46:23;6.70;1.00
14057;DHT22;7103;54.300;10.180;2022-11-23T11:49:04;6.70;1.00
14057;DHT22;7103;54.300;10.180;2022-11-23T11:51:39;6.80;1.00
14057;DHT22;7103;54.300;10.180;2022-11-23T11:54:27;6.80;1.00
14057;DHT22;7103;54.300;10.180;2022-11-23T11:57:15;6.80;1.00
14057;DHT22;7103;54.300;10.180;2022-11-23T11:59:49;6.80;1.00
14057;DHT22;7103;54.300;10.180;2022-11-23T12:02:33;6.80;1.00
14057;DHT22;7103;54.300;10.180;2022-11-23T12:13:19;6.90;1.00
14057;DHT22;7103;54.300;10.180;2022-11-23T12:22:01;6.90;99.90
14057;DHT22;7103;54.300;10.180;2022-11-23T12:30:41;7.00;99.90
14057;DHT22;7103;54.300;10.180;2022-11-23T12:42:14;7.10;99.90
14057;DHT22;7103;54.300;10.180;2022-11-23T12:44:59;7.10;99.90
14057;DHT22;7103;54.300;10.180;2022-11-23T12:48:00;7.00;99.90
14057;DHT22;7103;54.300;10.180;2022-11-23T12:53:35;6.90;99.90
14057;DHT22;7103;54.300;10.180;2022-11-23T12:58:47;6.90;99.90
14057;DHT22;7103;54.300;10.180;2022-11-23T13:01:29;7.00;99.90
14057;DHT22;7103;54.300;10.180;2022-11-23T13:04:09;7.00;99.90
14057;DHT22;7103;54.300;10.180;2022-11-23T13:15:40;7.10;99.90
14057;DHT22;7103;54.300;10.180;2022-11-23T13:23:36;6.90;99.90
14057;DHT22;7103;54.300;10.180;2022-11-23T13:26:22;6.90;99.90
14057;DHT22;7103;54.300;10.180;2022-11-23T13:28:51;6.90;99.90
14057;DHT22;7103;54.300;10.180;2022-11-23T13:33:54;6.90;99.90
14057;DHT22;7103;54.300;10.180;2022-11-23T13:42:13;6.90;99.90
14057;DHT22;7103;54.300;10.180;2022-11-23T13:44:40;7.00;99.90
14057;DHT22;7103;54.300;10.180;2022-11-23T13:49:51;6.90;99.90
14057;DHT22;7103;54.300;10.180;2022-11-23T13:52:25;6.80;99.90
14057;DHT22;7103;54.300;10.180;2022-11-23T13:55:00;6.90;99.90
14057;DHT22;7103;54.300;10.180;2022-11-23T13:57:39;6.80;99.90
14057;DHT22;7103;54.300;10.180;2022-11-23T14:00:46;6.80;99.90
14057;DHT22;7103;54.300;10.180;2022-11-23T14:11:48;6.70;99.90
14057;DHT22;7103;54.300;10.180;2022-11-23T14:14:22;6.70;99.90
14057;DHT22;7103;54.300;10.180;2022-11-23T14:23:06;6.60;99.90
14057;DHT22;7103;54.300;10.180;2022-11-23T14:42:02;6.40;1.00
14057;DHT22;7103;54.300;10.180;2022-11-23T14:44:31;6.40;1.00
14057;DHT22;7103;54.300;10.180;2022-11-23T14:47:09;6.60;1.00
14057;DHT22;7103;54.300;10.180;2022-11-23T14:49:40;6.60;1.00
14057;DHT22;7103;54.300;10.180;2022-11-23T14:52:20;6.50;1.00
14057;DHT22;7103;54.300;10.180;2022-11-23T14:54:49;6.50;1.00
14057;DHT22;7103;54.300;10.180;2022-11-23T14:57:19;6.50;1.00
14057;DHT22;7103;54.300;10.180;2022-11-23T14:59:57;6.70;1.00
14057;DHT22;7103;54.300;10.180;2022-11-23T15:02:36;6.60;1.00
14057;DHT22;7103;54.300;10.180;2022-11-23T15:05:23;6.60;1.00
14057;DHT22;7103;54.300;10.180;2022-11-23T15:08:04;6.60;1.00
14057;DHT22;7103;54.300;10.180;2022-11-23T15:10:46;6.70;1.00
14057;DHT22;7103;54.300;10.180;2022-11-23T15:13:23;6.70;1.00
14057;DHT22;7103;54.300;10.180;2022-11-23T15:15:52;6.60;1.00
14057;DHT22;7103;54.300;10.180;2022-11-23T15:18:33;6.70;1.00
14057;DHT22;7103;54.300;10.180;2022-11-23T15:21:05;6.70;1.00
14057;DHT22;7103;54.300;10.180;2022-11-23T15:23:44;6.70;1.00
14057;DHT22;7103;54.300;10.180;2022-11-23T15:26:15;6.70;1.00
14057;DHT22;7103;54.300;10.180;2022-11-23T15:29:02;6.60;1.00
14057;DHT22;7103;54.300;10.180;2022-11-23T15:31:34;6.60;1.00
14057;DHT22;7103;54.300;10.180;2022-11-23T15:34:12;6.50;1.00
14057;DHT22;7103;54.300;10.180;2022-11-23T15:36:40;6.50;1.00
14057;DHT22;7103;54.300;10.180;2022-11-23T15:39:20;6.50;1.00
14057;DHT22;7103;54.300;10.180;2022-11-23T15:41:52;6.60;1.00
14057;DHT22;7103;54.300;10.180;2022-11-23T15:44:25;6.60;1.00
14057;DHT22;7103;54.300;10.180;2022-11-23T15:47:01;6.60;1.00
14057;DHT22;7103;54.300;10.180;2022-11-23T15:49:28;6.50;1.00
14057;DHT22;7103;54.300;10.180;2022-11-23T15:52:00;6.60;1.00
14057;DHT22;7103;54.300;10.180;2022-11-23T15:54:37;6.50;1.00
14057;DHT22;7103;54.300;10.180;2022-11-23T15:57:22;6.60;1.00
14057;DHT22;7103;54.300;10.180;2022-11-23T15:59:59;6.50;1.00
14057;DHT22;7103;54.300;10.180;2022-11-23T16:02:29;6.40;1.00
14057;DHT22;7103;54.300;10.180;2022-11-23T16:07:53;6.30;1.00
14057;DHT22;7103;54.300;10.180;2022-11-23T16:10:31;6.30;1.00
14057;DHT22;7103;54.300;10.180;2022-11-23T16:13:00;6.40;1.00
14057;DHT22;7103;54.300;10.180;2022-11-23T16:20:46;6.40;1.00
14057;DHT22;7103;54.300;10.180;2022-11-23T16:23:22;6.40;1.00
14057;DHT22;7103;54.300;10.180;2022-11-23T16:26:04;6.40;1.00
14057;DHT22;7103;54.300;10.180;2022-11-23T16:28:37;6.40;1.00
14057;DHT22;7103;54.300;10.180;2022-11-23T16:31:04;6.40;1.00
14057;DHT22;7103;54.300;10.180;2022-11-23T16:33:40;6.40;1.00
14057;DHT22;7103;54.300;10.180;2022-11-23T16:36:07;6.40;1.00
14057;DHT22;7103;54.300;10.180;2022-11-23T16:38:37;6.30;1.00
14057;DHT22;7103;54.300;10.180;2022-11-23T16:41:04;6.30;1.00
14057;DHT22;7103;54.300;10.180;2022-11-23T16:43:31;6.30;1.00
14057;DHT22;7103;54.300;10.180;2022-11-23T16:46:00;6.40;1.00
14057;DHT22;7103;54.300;10.180;2022-11-23T16:50:55;6.40;1.00
14057;DHT22;7103;54.300;10.180;2022-11-23T16:53:23;6.30;1.00
14057;DHT22;7103;54.300;10.180;2022-11-23T16:55:53;6.50;1.00
14057;DHT22;7103;54.300;10.180;2022-11-23T16:58:21;6.50;1.00
14057;DHT22;7103;54.300;10.180;2022-11-23T17:00:48;6.50;1.00
14057;DHT22;7103;54.300;10.180;2022-11-23T17:03:17;6.50;1.00
14057;DHT22;7103;54.300;10.180;2022-11-23T17:05:45;6.40;1.00
14057;DHT22;7103;54.300;10.180;2022-11-23T17:08:13;6.40;1.00
14057;DHT22;7103;54.300;10.180;2022-11-23T17:10:49;6.40;1.00
14057;DHT22;7103;54.300;10.180;2022-11-23T17:13:21;6.30;1.00
14057;DHT22;7103;54.300;10.180;2022-11-23T17:15:49;6.40;1.00
14057;DHT22;7103;54.300;10.180;2022-11-23T17:18:17;6.40;1.00
14057;DHT22;7103;54.300;10.180;2022-11-23T17:20:44;6.50;1.00
14057;DHT22;7103;54.300;10.180;2022-11-23T17:23:11;6.40;1.00
14057;DHT22;7103;54.300;10.180;2022-11-23T17:25:39;6.50;1.00
14057;DHT22;7103;54.300;10.180;2022-11-23T17:28:13;6.40;1.00
14057;DHT22;7103;54.300;10.180;2022-11-23T17:30:43;6.30;1.00
14057;DHT22;7103;54.300;10.180;2022-11-23T17:33:10;6.40;1.00
14057;DHT22;7103;54.300;10.180;2022-11-23T17:35:37;6.40;1.00
14057;DHT22;7103;54.300;10.180;2022-11-23T17:38:06;6.40;1.00
14057;DHT22;7103;54.300;10.180;2022-11-23T17:40:36;6.40;1.00
14057;DHT22;7103;54.300;10.180;2022-11-23T17:43:03;6.40;1.00
14057;DHT22;7103;54.300;10.180;2022-11-23T17:45:30;6.30;1.00
14057;DHT22;7103;54.300;10.180;2022-11-23T17:47:57;6.30;1.00
14057;DHT22;7103;54.300;10.180;2022-11-23T17:50:29;6.30;1.00
14057;DHT22;7103;54.300;10.180;2022-11-23T17:52:56;6.30;1.00
14057;DHT22;7103;54.300;10.180;2022-11-23T17:55:23;6.40;1.00
14057;DHT22;7103;54.300;10.180;2022-11-23T17:57:50;6.30;1.00
14057;DHT22;7103;54.300;10.180;2022-11-23T18:00:22;6.30;1.00
14057;DHT22;7103;54.300;10.180;2022-11-23T18:02:49;6.30;1.00
14057;DHT22;7103;54.300;10.180;2022-11-23T18:05:17;6.30;1.00
14057;DHT22;7103;54.300;10.180;2022-11-23T18:07:48;6.20;1.00
14057;DHT22;7103;54.300;10.180;2022-11-23T18:10:16;6.20;1.00
14057;DHT22;7103;54.300;10.180;2022-11-23T18:12:44;6.30;1.00
14057;DHT22;7103;54.300;10.180;2022-11-23T18:15:11;6.20;1.00
14057;DHT22;7103;54.300;10.180;2022-11-23T18:17:38;6.20;1.00
14057;DHT22;7103;54.300;10.180;2022-11-23T18:20:06;6.20;1.00
14057;DHT22;7103;54.300;10.180;2022-11-23T18:22:34;6.20;1.00
14057;DHT22;7103;54.300;10.180;2022-11-23T18:25:01;6.20;1.00
14057;DHT22;7103;54.300;10.180;2022-11-23T18:27:28;6.20;1.00
14057;DHT22;7103;54.300;10.180;2022-11-23T18:29:55;6.20;1.00
14057;DHT22;7103;54.300;10.180;2022-11-23T18:32:22;6.10;1.00
14057;DHT22;7103;54.300;10.180;2022-11-23T18:34:49;6.10;1.00
14057;DHT22;7103;54.300;10.180;2022-11-23T18:37:16;6.10;1.00
14057;DHT22;7103;54.300;10.180;2022-11-23T18:39:43;6.10;1.00